createdAt,value
2023-01-08T00:00:00.875Z,34.60
2023-01-08T00:02:27.603Z,34.60
2023-01-08T00:04:54.323Z,34.50
2023-01-08T00:07:21.279Z,34.50
2023-01-08T00:09:50.526Z,34.50
2023-01-08T00:12:17.370Z,34.90
2023-01-08T00:14:44.089Z,34.90
2023-01-08T00:17:10.864Z,35.10
2023-01-08T00:19:37.709Z,35.30
2023-01-08T00:22:04.398Z,35.20
2023-01-08T00:24:31.177Z,35.20
2023-01-08T00:26:57.917Z,35.40
2023-01-08T00:29:24.710Z,35.50
2023-01-08T00:31:52.336Z,35.60
2023-01-08T00:34:19.188Z,35.70
2023-01-08T00:36:46.012Z,35.50
2023-01-08T00:39:12.752Z,35.20
2023-01-08T00:41:39.694Z,35.30
2023-01-08T00:44:06.719Z,35.20
2023-01-08T00:46:33.499Z,35.40
2023-01-08T00:49:00.237Z,35.50
2023-01-08T00:51:27.309Z,35.20
2023-01-08T00:53:54.011Z,34.90
2023-01-08T00:56:20.753Z,35.00
2023-01-08T00:58:48.506Z,35.00
2023-01-08T01:01:16.298Z,35.30
2023-01-08T01:03:43.337Z,35.20
2023-01-08T01:06:14.546Z,35.30
2023-01-08T01:08:42.115Z,35.20
2023-01-08T01:11:23.303Z,35.30
2023-01-08T01:13:50.654Z,35.30
2023-01-08T01:16:18.749Z,35.50
2023-01-08T01:18:45.661Z,35.60
2023-01-08T01:21:19.825Z,35.70
2023-01-08T01:23:46.659Z,35.60
2023-01-08T01:26:17.127Z,35.70
2023-01-08T01:28:44.277Z,35.50
2023-01-08T01:31:13.834Z,35.50
2023-01-08T01:33:41.762Z,35.60
2023-01-08T01:36:11.363Z,35.70
2023-01-08T01:38:38.298Z,35.80
2023-01-08T01:41:05.429Z,35.90
2023-01-08T01:43:42.572Z,36.00
2023-01-08T01:46:20.095Z,36.00
2023-01-08T01:48:50.761Z,36.00
2023-01-08T01:51:18.520Z,36.20
2023-01-08T01:53:45.998Z,36.40
2023-01-08T01:56:12.802Z,36.50
2023-01-08T01:58:39.581Z,36.70
2023-01-08T02:01:08.406Z,36.80
2023-01-08T02:03:37.979Z,37.20
2023-01-08T02:06:31.617Z,37.50
2023-01-08T02:09:03.667Z,37.40
2023-01-08T02:11:44.737Z,37.70
2023-01-08T02:14:38.923Z,37.80
2023-01-08T02:17:16.048Z,37.30
2023-01-08T02:20:16.287Z,38.30
2023-01-08T02:23:20.211Z,37.40
2023-01-08T02:26:09.230Z,37.40
2023-01-08T02:28:48.032Z,37.40
2023-01-08T02:31:16.619Z,37.50
2023-01-08T02:33:43.466Z,37.80
2023-01-08T02:36:13.273Z,37.70
2023-01-08T02:38:48.128Z,37.60
2023-01-08T02:41:17.243Z,37.60
2023-01-08T02:43:51.729Z,37.60
2023-01-08T02:46:26.513Z,37.50
2023-01-08T02:48:59.185Z,37.50
2023-01-08T02:51:35.539Z,37.70
2023-01-08T02:54:09.172Z,37.80
2023-01-08T02:56:39.661Z,37.90
2023-01-08T02:59:08.082Z,38.00
2023-01-08T03:01:36.010Z,38.10
2023-01-08T03:04:08.224Z,38.10
2023-01-08T03:06:35.332Z,38.10
2023-01-08T03:09:02.212Z,38.20
2023-01-08T03:11:37.108Z,38.10
2023-01-08T03:14:25.053Z,37.90
2023-01-08T03:16:54.844Z,37.70
2023-01-08T03:19:23.133Z,38.10
2023-01-08T03:21:52.727Z,38.00
2023-01-08T03:24:25.389Z,38.00
2023-01-08T03:26:56.354Z,38.00
2023-01-08T03:29:24.493Z,38.30
2023-01-08T03:31:55.035Z,38.30
2023-01-08T03:34:25.499Z,39.60
2023-01-08T03:36:57.392Z,38.40
2023-01-08T03:39:44.389Z,38.40
2023-01-08T03:42:14.530Z,38.30
2023-01-08T03:44:41.442Z,38.60
2023-01-08T03:47:10.309Z,38.60
2023-01-08T03:49:39.018Z,38.50
2023-01-08T03:52:05.837Z,38.70
2023-01-08T03:54:35.793Z,38.80
2023-01-08T03:57:02.977Z,38.80
2023-01-08T03:59:29.730Z,38.80
2023-01-08T04:01:56.672Z,39.00
2023-01-08T04:04:23.530Z,39.10
2023-01-08T04:06:52.689Z,39.00
2023-01-08T04:09:19.649Z,39.00
2023-01-08T04:11:46.409Z,38.90
2023-01-08T04:14:13.295Z,38.90
2023-01-08T04:16:40.048Z,38.70
2023-01-08T04:19:06.837Z,38.40
2023-01-08T04:21:33.728Z,38.60
2023-01-08T04:24:00.470Z,38.70
2023-01-08T04:26:27.193Z,38.90
2023-01-08T04:28:54.117Z,39.10
2023-01-08T04:31:20.916Z,38.50
2023-01-08T04:33:47.884Z,38.80
2023-01-08T04:36:14.859Z,39.40
2023-01-08T04:38:42.173Z,39.80
2023-01-08T04:41:09.597Z,40.20
2023-01-08T04:43:36.436Z,40.10
2023-01-08T04:46:04.989Z,40.30
2023-01-08T04:48:34.453Z,40.00
2023-01-08T04:51:02.464Z,42.10
2023-01-08T04:53:30.582Z,38.80
2023-01-08T04:56:02.426Z,38.80
2023-01-08T04:58:29.751Z,39.20
2023-01-08T05:00:56.649Z,40.70
2023-01-08T05:03:23.473Z,39.20
2023-01-08T05:05:50.238Z,38.70
2023-01-08T05:08:17.318Z,38.30
2023-01-08T05:10:44.115Z,38.00
2023-01-08T05:13:10.863Z,38.20
2023-01-08T05:15:37.673Z,38.30
2023-01-08T05:18:06.429Z,38.40
2023-01-08T05:20:34.121Z,38.50
2023-01-08T05:23:01.709Z,39.40
2023-01-08T05:25:28.666Z,40.90
2023-01-08T05:27:55.455Z,41.00
2023-01-08T05:30:22.277Z,43.60
2023-01-08T05:32:49.060Z,43.70
2023-01-08T05:35:15.800Z,41.80
2023-01-08T05:37:42.579Z,40.80
2023-01-08T05:40:10.174Z,39.00
2023-01-08T05:42:37.446Z,38.60
2023-01-08T05:45:06.623Z,38.80
2023-01-08T05:47:34.182Z,39.20
2023-01-08T05:50:01.179Z,41.30
2023-01-08T05:52:27.988Z,40.80
2023-01-08T05:54:54.739Z,40.80
2023-01-08T05:57:21.677Z,40.60
2023-01-08T05:59:48.956Z,40.80
2023-01-08T06:02:15.722Z,40.10
2023-01-08T06:04:42.634Z,40.00
2023-01-08T06:07:09.384Z,39.90
2023-01-08T06:09:36.142Z,39.80
2023-01-08T06:12:02.970Z,39.40
2023-01-08T06:14:29.819Z,40.50
2023-01-08T06:16:56.598Z,38.60
2023-01-08T06:19:23.764Z,38.50
2023-01-08T06:21:50.516Z,38.40
2023-01-08T06:24:20.986Z,38.70
2023-01-08T06:26:47.743Z,40.10
2023-01-08T06:29:14.559Z,38.70
2023-01-08T06:31:41.516Z,40.50
2023-01-08T06:34:08.368Z,38.90
2023-01-08T06:36:35.065Z,38.50
2023-01-08T06:39:01.882Z,38.20
2023-01-08T06:41:28.652Z,39.30
2023-01-08T06:43:55.444Z,37.80
2023-01-08T06:46:22.237Z,37.80
2023-01-08T06:48:49.304Z,37.80
2023-01-08T06:51:16.241Z,37.90
2023-01-08T06:53:43.091Z,37.70
2023-01-08T06:56:11.014Z,37.80
2023-01-08T06:58:38.633Z,37.60
2023-01-08T07:01:05.905Z,37.80
2023-01-08T07:03:32.779Z,37.50
2023-01-08T07:06:03.047Z,37.70
2023-01-08T07:08:29.844Z,37.50
2023-01-08T07:10:56.609Z,38.00
2023-01-08T07:13:24.297Z,37.90
2023-01-08T07:15:51.304Z,37.90
2023-01-08T07:18:18.039Z,37.90
2023-01-08T07:20:44.796Z,38.00
2023-01-08T07:23:12.474Z,38.00
2023-01-08T07:25:39.403Z,37.90
2023-01-08T07:28:06.785Z,38.00
2023-01-08T07:30:33.621Z,38.20
2023-01-08T07:33:01.630Z,38.20
2023-01-08T07:35:29.105Z,38.00
2023-01-08T07:37:56.388Z,38.10
2023-01-08T07:40:23.889Z,38.30
2023-01-08T07:43:12.357Z,38.10
2023-01-08T07:45:39.563Z,38.10
2023-01-08T07:48:07.081Z,38.70
2023-01-08T07:50:33.953Z,38.70
2023-01-08T07:53:01.933Z,38.90
2023-01-08T07:55:30.303Z,38.90
2023-01-08T07:57:57.161Z,39.00
2023-01-08T08:00:24.113Z,39.20
2023-01-08T08:02:51.196Z,39.20
2023-01-08T08:05:18.264Z,40.70
2023-01-08T08:07:45.081Z,39.40
2023-01-08T08:10:12.024Z,39.50
2023-01-08T08:12:38.930Z,39.50
2023-01-08T08:15:06.515Z,39.70
2023-01-08T08:17:33.329Z,39.60
2023-01-08T08:20:00.144Z,39.90
2023-01-08T08:22:27.385Z,40.10
2023-01-08T08:24:54.366Z,40.40
2023-01-08T08:27:21.220Z,40.30
2023-01-08T08:29:48.082Z,41.80
2023-01-08T08:32:14.859Z,40.80
2023-01-08T08:34:41.605Z,40.60
2023-01-08T08:37:08.913Z,40.90
2023-01-08T08:39:36.592Z,42.40
2023-01-08T08:42:06.500Z,41.10
2023-01-08T08:44:33.413Z,41.70
2023-01-08T08:47:00.267Z,41.60
2023-01-08T08:49:27.052Z,41.30
2023-01-08T08:51:54.350Z,41.20
2023-01-08T08:54:21.163Z,41.30
2023-01-08T08:56:48.450Z,41.30
2023-01-08T08:59:15.257Z,41.40
2023-01-08T09:01:42.068Z,41.70
2023-01-08T09:04:08.954Z,41.80
2023-01-08T09:06:35.689Z,42.00
2023-01-08T09:09:02.642Z,41.90
2023-01-08T09:11:29.390Z,41.80
2023-01-08T09:13:56.214Z,42.90
2023-01-08T09:16:23.324Z,41.90
2023-01-08T09:18:51.076Z,41.60
2023-01-08T09:21:18.114Z,43.60
2023-01-08T09:23:44.909Z,41.90
2023-01-08T09:26:11.741Z,43.10
2023-01-08T09:28:39.140Z,42.00
2023-01-08T09:31:05.950Z,42.10
2023-01-08T09:33:33.135Z,42.10
2023-01-08T09:36:00.052Z,42.00
2023-01-08T09:38:29.623Z,42.00
2023-01-08T09:41:10.978Z,42.10
2023-01-08T09:43:40.410Z,41.90
2023-01-08T09:46:08.457Z,42.40
2023-01-08T09:48:37.975Z,42.20
2023-01-08T09:51:09.028Z,42.10
2023-01-08T09:53:35.859Z,42.20
2023-01-08T09:56:10.153Z,43.30
2023-01-08T09:58:41.421Z,42.30
2023-01-08T10:01:14.112Z,42.10
2023-01-08T10:03:51.397Z,42.00
2023-01-08T10:06:18.469Z,41.90
2023-01-08T10:11:18.928Z,41.50
2023-01-08T10:13:53.522Z,41.60
2023-01-08T10:16:30.444Z,41.70
2023-01-08T10:18:59.819Z,42.00
2023-01-08T10:21:36.435Z,42.00
2023-01-08T10:24:03.490Z,42.40
2023-01-08T10:26:36.596Z,42.50
2023-01-08T10:29:21.472Z,42.60
2023-01-08T10:31:55.363Z,42.30
2023-01-08T10:34:39.576Z,42.70
2023-01-08T10:37:22.640Z,43.20
2023-01-08T10:39:49.917Z,43.10
2023-01-08T10:42:19.196Z,42.90
2023-01-08T10:45:00.383Z,42.80
2023-01-08T10:47:31.038Z,42.30
2023-01-08T10:49:59.443Z,42.30
2023-01-08T10:52:32.893Z,42.10
2023-01-08T10:55:28.622Z,41.70
2023-01-08T10:58:03.550Z,41.40
2023-01-08T11:00:36.225Z,41.00
2023-01-08T11:03:06.933Z,41.40
2023-01-08T11:05:37.015Z,41.70
2023-01-08T11:08:06.815Z,41.90
2023-01-08T11:10:36.312Z,41.60
2023-01-08T11:13:07.077Z,41.60
2023-01-08T11:15:38.739Z,41.30
2023-01-08T11:18:13.122Z,42.50
2023-01-08T11:20:41.947Z,41.20
2023-01-08T11:23:21.841Z,41.00
2023-01-08T11:26:10.740Z,40.60
2023-01-08T11:29:05.806Z,40.40
2023-01-08T11:31:54.254Z,40.30
2023-01-08T11:34:28.883Z,40.60
2023-01-08T11:37:04.262Z,40.90
2023-01-08T11:39:33.244Z,40.60
2023-01-08T11:42:14.366Z,40.20
2023-01-08T11:44:51.271Z,40.00
2023-01-08T11:47:29.793Z,39.70
2023-01-08T11:50:13.348Z,39.40
2023-01-08T11:53:16.877Z,39.60
2023-01-08T11:55:58.542Z,40.40
2023-01-08T11:58:49.355Z,39.50
2023-01-08T12:01:45.111Z,39.00
2023-01-08T12:04:30.345Z,39.20
2023-01-08T12:07:14.768Z,39.10
2023-01-08T12:09:46.320Z,39.00
2023-01-08T12:12:51.441Z,38.80
2023-01-08T12:15:40.946Z,38.50
2023-01-08T12:18:31.399Z,38.20
2023-01-08T12:21:23.198Z,37.60
2023-01-08T12:24:14.917Z,37.80
2023-01-08T12:27:00.451Z,37.60
2023-01-08T12:29:49.597Z,37.40
2023-01-08T12:32:36.322Z,37.30
2023-01-08T12:35:24.907Z,36.90
2023-01-08T12:38:18.171Z,36.80
2023-01-08T12:41:09.168Z,36.40
2023-01-08T12:44:00.813Z,36.20
2023-01-08T12:46:34.425Z,36.40
2023-01-08T12:49:02.292Z,36.70
2023-01-08T12:52:02.434Z,36.90
2023-01-08T12:54:32.122Z,36.90
2023-01-08T12:57:21.407Z,37.90
2023-01-08T13:00:17.702Z,37.00
2023-01-08T13:02:44.617Z,36.90
2023-01-08T13:05:34.387Z,37.30
2023-01-08T13:08:07.864Z,36.60
2023-01-08T13:10:49.043Z,37.00
2023-01-08T13:13:31.021Z,36.50
2023-01-08T13:16:20.066Z,35.90
2023-01-08T13:19:01.659Z,35.40
2023-01-08T13:21:37.726Z,35.40
2023-01-08T13:24:19.795Z,35.80
2023-01-08T13:26:46.563Z,36.20
2023-01-08T13:29:27.534Z,36.30
2023-01-08T13:31:54.411Z,35.90
2023-01-08T13:34:34.715Z,35.60
2023-01-08T13:37:01.516Z,34.90
2023-01-08T13:39:38.846Z,34.60
2023-01-08T13:42:13.667Z,33.70
2023-01-08T13:44:47.460Z,34.00
2023-01-08T13:47:35.175Z,34.40
2023-01-08T13:50:15.921Z,33.90
2023-01-08T13:52:45.483Z,33.70
2023-01-08T13:55:19.964Z,33.50
2023-01-08T13:57:51.303Z,33.40
2023-01-08T14:00:24.504Z,33.40
2023-01-08T14:02:51.816Z,33.40
2023-01-08T14:05:20.867Z,33.10
2023-01-08T14:07:47.827Z,33.40
2023-01-08T14:10:16.133Z,33.70
2023-01-08T14:12:43.346Z,33.20
2023-01-08T14:15:29.390Z,34.40
2023-01-08T14:17:57.216Z,32.90
2023-01-08T14:20:32.795Z,33.50
2023-01-08T14:23:01.549Z,33.30
2023-01-08T14:25:29.449Z,33.70
2023-01-08T14:28:02.619Z,33.80
2023-01-08T14:30:30.434Z,33.70
2023-01-08T14:32:59.668Z,33.60
2023-01-08T14:35:32.507Z,33.40
2023-01-08T14:38:01.214Z,33.80
2023-01-08T14:40:34.884Z,33.60
2023-01-08T14:43:08.409Z,33.60
2023-01-08T14:45:36.895Z,33.50
2023-01-08T14:48:48.611Z,33.40
2023-01-08T14:51:22.346Z,33.20
2023-01-08T14:53:53.769Z,33.70
2023-01-08T14:56:33.235Z,34.80
2023-01-08T14:59:00.696Z,33.30
2023-01-08T15:01:30.725Z,32.60
2023-01-08T15:04:17.323Z,32.30
2023-01-08T15:06:44.627Z,32.10
2023-01-08T15:09:33.119Z,32.20
2023-01-08T15:12:02.479Z,33.60
2023-01-08T15:14:31.053Z,32.70
2023-01-08T15:17:00.280Z,32.50
2023-01-08T15:19:29.703Z,32.30
2023-01-08T15:22:01.061Z,32.20
2023-01-08T15:24:33.496Z,31.20
2023-01-08T15:27:09.692Z,32.00
2023-01-08T15:29:48.468Z,31.90
2023-01-08T15:32:15.294Z,31.90
2023-01-08T15:34:47.287Z,32.00
2023-01-08T15:37:16.186Z,32.30
2023-01-08T15:39:44.126Z,32.50
2023-01-08T15:42:48.841Z,32.20
2023-01-08T15:45:21.056Z,31.70
2023-01-08T15:47:47.955Z,32.00
2023-01-08T15:50:21.608Z,31.90
2023-01-08T15:52:49.478Z,31.60
2023-01-08T15:55:19.744Z,31.80
2023-01-08T15:57:46.832Z,31.70
2023-01-08T16:00:18.641Z,31.80
2023-01-08T16:02:50.957Z,31.70
2023-01-08T16:05:19.501Z,32.00
2023-01-08T16:07:47.101Z,31.60
2023-01-08T16:10:18.535Z,31.90
2023-01-08T16:12:45.768Z,31.90
2023-01-08T16:15:13.862Z,31.70
2023-01-08T16:17:41.418Z,31.80
2023-01-08T16:20:09.808Z,31.90
2023-01-08T16:22:36.724Z,32.00
2023-01-08T16:25:04.094Z,32.10
2023-01-08T16:27:32.239Z,32.30
2023-01-08T16:29:59.325Z,32.10
2023-01-08T16:32:26.388Z,32.30
2023-01-08T16:34:54.948Z,32.50
2023-01-08T16:37:22.762Z,32.40
2023-01-08T16:39:49.817Z,32.50
2023-01-08T16:42:16.728Z,32.60
2023-01-08T16:44:43.763Z,32.90
2023-01-08T16:47:10.951Z,32.90
2023-01-08T16:49:37.873Z,32.80
2023-01-08T16:52:05.556Z,32.60
2023-01-08T16:54:36.905Z,32.80
2023-01-08T16:57:03.818Z,32.60
2023-01-08T16:59:32.865Z,32.80
2023-01-08T17:01:59.997Z,33.20
2023-01-08T17:04:29.502Z,33.00
2023-01-08T17:06:57.019Z,33.10
2023-01-08T17:09:24.992Z,33.20
2023-01-08T17:11:51.760Z,33.40
2023-01-08T17:14:18.773Z,33.40
2023-01-08T17:16:47.660Z,33.60
2023-01-08T17:19:15.147Z,33.90
2023-01-08T17:21:43.700Z,33.80
2023-01-08T17:24:10.590Z,34.00
2023-01-08T17:26:37.443Z,34.20
2023-01-08T17:29:04.212Z,34.10
2023-01-08T17:31:36.626Z,34.20
2023-01-08T17:34:03.370Z,34.30
2023-01-08T17:36:32.137Z,34.50
2023-01-08T17:39:01.105Z,34.60
2023-01-08T17:41:46.685Z,35.40
2023-01-08T17:44:13.995Z,34.60
2023-01-08T17:46:44.432Z,34.80
2023-01-08T17:49:13.745Z,34.80
2023-01-08T17:51:46.336Z,34.90
2023-01-08T17:54:16.195Z,34.90
2023-01-08T17:56:44.121Z,34.90
2023-01-08T17:59:18.766Z,34.80
2023-01-08T18:01:46.044Z,34.90
2023-01-08T18:04:14.001Z,34.70
2023-01-08T18:06:41.683Z,34.70
2023-01-08T18:09:09.998Z,34.70
2023-01-08T18:11:37.034Z,34.70
2023-01-08T18:14:04.188Z,34.90
2023-01-08T18:16:33.074Z,35.20
2023-01-08T18:19:02.008Z,35.00
2023-01-08T18:21:29.958Z,35.20
2023-01-08T18:23:57.204Z,35.20
2023-01-08T18:26:23.936Z,35.30
2023-01-08T18:28:52.998Z,35.30
2023-01-08T18:31:20.038Z,35.40
2023-01-08T18:33:49.812Z,35.40
2023-01-08T18:36:16.665Z,35.40
2023-01-08T18:38:44.519Z,35.60
2023-01-08T18:41:33.495Z,35.90
2023-01-08T18:44:01.112Z,36.10
2023-01-08T18:46:27.899Z,36.50
2023-01-08T18:48:55.108Z,36.40
2023-01-08T18:51:22.464Z,36.40
2023-01-08T18:53:50.422Z,36.50
2023-01-08T18:56:26.701Z,36.70
2023-01-08T18:58:53.531Z,36.60
2023-01-08T19:01:20.466Z,37.10
2023-01-08T19:03:52.290Z,37.10
2023-01-08T19:06:21.538Z,37.20
2023-01-08T19:08:48.321Z,37.70
2023-01-08T19:11:15.764Z,38.30
2023-01-08T19:13:43.749Z,38.70
2023-01-08T19:16:12.639Z,38.70
2023-01-08T19:18:40.296Z,38.90
2023-01-08T19:21:08.963Z,39.00
2023-01-08T19:23:36.106Z,39.00
2023-01-08T19:26:07.498Z,39.40
2023-01-08T19:28:34.372Z,39.20
2023-01-08T19:31:01.899Z,39.30
2023-01-08T19:33:29.351Z,39.30
2023-01-08T19:36:01.023Z,39.40
2023-01-08T19:38:27.805Z,39.30
2023-01-08T19:40:59.004Z,39.50
2023-01-08T19:43:44.015Z,39.50
2023-01-08T19:46:15.582Z,39.50
2023-01-08T19:48:44.002Z,39.80
2023-01-08T19:51:11.807Z,39.90
2023-01-08T19:53:38.998Z,40.00
2023-01-08T19:56:08.526Z,40.00
2023-01-08T19:58:35.424Z,40.00
2023-01-08T20:01:18.675Z,40.00
2023-01-08T20:03:45.727Z,40.30
2023-01-08T20:06:17.313Z,40.40
2023-01-08T20:08:46.233Z,40.70
2023-01-08T20:11:14.537Z,40.40
2023-01-08T20:13:41.620Z,40.50
2023-01-08T20:16:12.258Z,40.60
2023-01-08T20:18:39.703Z,40.70
2023-01-08T20:21:09.184Z,41.00
2023-01-08T20:23:36.829Z,41.00
2023-01-08T20:26:06.391Z,41.20
2023-01-08T20:28:37.976Z,41.20
2023-01-08T20:31:16.589Z,41.10
2023-01-08T20:33:44.068Z,41.10
2023-01-08T20:36:19.541Z,41.00
2023-01-08T20:38:50.100Z,40.90
2023-01-08T20:41:16.941Z,40.80
2023-01-08T20:43:43.725Z,40.90
2023-01-08T20:46:13.642Z,40.80
2023-01-08T20:48:48.260Z,40.70
2023-01-08T20:51:15.937Z,40.80
2023-01-08T20:53:42.750Z,41.10
2023-01-08T20:56:14.716Z,41.60
2023-01-08T20:58:44.861Z,41.40
2023-01-08T21:01:16.594Z,41.20
2023-01-08T21:03:44.325Z,41.10
2023-01-08T21:06:17.342Z,41.20
2023-01-08T21:08:45.917Z,41.20
2023-01-08T21:11:14.142Z,41.40
2023-01-08T21:13:41.601Z,41.50
2023-01-08T21:16:16.751Z,41.80
2023-01-08T21:18:49.940Z,41.90
2023-01-08T21:21:19.571Z,41.80
2023-01-08T21:23:47.341Z,41.90
2023-01-08T21:26:16.009Z,42.10
2023-01-08T21:28:43.729Z,42.20
2023-01-08T21:31:11.691Z,42.40
2023-01-08T21:33:39.029Z,42.40
2023-01-08T21:36:08.214Z,42.40
2023-01-08T21:38:36.810Z,42.60
2023-01-08T21:41:09.454Z,42.40
2023-01-08T21:43:54.629Z,42.80
2023-01-08T21:46:25.543Z,43.00
2023-01-08T21:48:52.401Z,43.30
2023-01-08T21:51:38.427Z,43.50
2023-01-08T21:54:05.422Z,43.20
2023-01-08T21:56:32.196Z,44.40
2023-01-08T21:58:58.908Z,44.50
2023-01-08T22:01:25.738Z,44.50
2023-01-08T22:03:52.677Z,44.50
2023-01-08T22:06:19.440Z,44.50
2023-01-08T22:08:51.575Z,44.50
2023-01-08T22:11:18.382Z,44.40
2023-01-08T22:13:45.338Z,44.50
2023-01-08T22:16:12.947Z,44.50
2023-01-08T22:18:40.194Z,44.50
2023-01-08T22:21:10.370Z,44.50
2023-01-08T22:23:37.813Z,45.00
2023-01-08T22:26:06.557Z,44.40
2023-01-08T22:28:33.476Z,44.40
2023-01-08T22:31:04.405Z,44.40
2023-01-08T22:33:31.098Z,44.50
2023-01-08T22:35:57.867Z,44.50
2023-01-08T22:38:24.644Z,44.60
2023-01-08T22:40:51.420Z,45.90
2023-01-08T22:43:18.201Z,44.50
2023-01-08T22:45:55.213Z,44.40
2023-01-08T22:48:22.194Z,44.40
2023-01-08T22:50:49.239Z,44.40
2023-01-08T22:53:16.221Z,44.50
2023-01-08T22:55:44.021Z,44.40
2023-01-08T22:58:10.709Z,44.40
2023-01-08T23:00:38.266Z,44.50
2023-01-08T23:03:05.843Z,44.50
2023-01-08T23:05:32.943Z,44.50
2023-01-08T23:08:00.284Z,44.40
2023-01-08T23:10:27.244Z,44.40
2023-01-08T23:12:54.233Z,44.50
2023-01-08T23:15:22.083Z,44.40
2023-01-08T23:17:52.487Z,44.40
2023-01-08T23:20:20.654Z,44.50
2023-01-08T23:22:48.536Z,44.40
2023-01-08T23:25:16.037Z,44.40
2023-01-08T23:27:44.754Z,44.40
2023-01-08T23:30:12.594Z,44.40
2023-01-08T23:32:39.852Z,44.50
2023-01-08T23:35:07.007Z,44.50
2023-01-08T23:37:34.375Z,44.40
2023-01-08T23:40:01.153Z,44.50
2023-01-08T23:42:29.420Z,44.40
2023-01-08T23:44:56.269Z,44.30
2023-01-08T23:47:23.249Z,44.30
2023-01-08T23:49:50.042Z,44.40
2023-01-08T23:52:16.781Z,44.40
2023-01-08T23:54:43.626Z,44.40
2023-01-08T23:57:10.381Z,44.40
2023-01-08T23:59:37.221Z,44.40
